Time;durP1;ratioP1;P1;durP2;ratioP2;P2;SDS_P1;SDS_P2;PMS_P1;PMS_P2;Temp;Humidity;BMP_temperature;BMP_pressure;BME280_temperature;BME280_humidity;BME280_pressure;Samples;Min_cycle;Max_cycle;Signal;HPM_P1;HPM_P2
2024/04/12 00:01:11;;;;;;;47.03;44.63;;;23.00;65.40;;;;;;5352631;26;20464;-61
2024/04/12 00:03:37;;;;;;;47.83;45.47;;;23.00;65.40;;;;;;5350850;26;20468;-59
2024/04/12 00:06:14;;;;;;;45.73;43.63;;;23.00;65.50;;;;;;5350917;26;20887;-61
2024/04/12 00:08:41;;;;;;;46.43;44.23;;;23.00;65.60;;;;;;5358426;26;20762;-62
2024/04/12 00:11:12;;;;;;;45.97;43.73;;;23.00;65.70;;;;;;5338486;26;20531;-60
2024/04/12 00:13:41;;;;;;;44.83;42.83;;;23.00;65.70;;;;;;5316174;26;21276;-61
2024/04/12 00:16:09;;;;;;;45.17;42.87;;;23.00;65.80;;;;;;5356636;26;20519;-62
2024/04/12 00:18:36;;;;;;;45.87;43.67;;;23.00;65.80;;;;;;5325164;26;20466;-62
2024/04/12 00:21:05;;;;;;;46.77;44.60;;;22.90;65.70;;;;;;5362585;26;20998;-59
2024/04/12 00:23:32;;;;;;;48.70;46.40;;;22.90;65.80;;;;;;5351183;26;20802;-61
2024/04/12 00:26:01;;;;;;;47.03;44.60;;;22.90;65.90;;;;;;5356636;26;20474;-61
2024/04/12 00:28:30;;;;;;;46.00;43.60;;;22.90;65.90;;;;;;5356527;26;20466;-62
2024/04/12 00:31:01;;;;;;;47.60;45.50;;;22.90;66.00;;;;;;5336986;26;20480;-61
2024/04/12 00:33:31;;;;;;;46.37;44.27;;;22.90;66.10;;;;;;5364595;26;20527;-62
2024/04/12 00:36:07;;;;;;;50.30;47.83;;;22.90;66.10;;;;;;5336974;26;20476;-61
2024/04/12 00:38:35;;;;;;;48.50;46.30;;;22.80;66.10;;;;;;5350353;26;20526;-61
2024/04/12 00:41:11;;;;;;;45.23;43.33;;;22.80;66.20;;;;;;5349801;26;20578;-62
2024/04/12 00:43:45;;;;;;;48.30;45.90;;;22.80;66.20;;;;;;5390558;21;20468;-66
2024/04/12 00:46:18;;;;;;;47.07;44.77;;;22.80;66.20;;;;;;5314300;26;21014;-65
2024/04/12 00:48:44;;;;;;;44.90;42.90;;;22.80;66.20;;;;;;5318165;26;20814;-65
2024/04/12 00:51:16;;;;;;;44.03;42.13;;;22.80;66.30;;;;;;5315224;26;20469;-66
2024/04/12 00:53:43;;;;;;;46.53;44.43;;;22.80;66.40;;;;;;5318489;26;20470;-66
2024/04/12 00:56:13;;;;;;;42.93;40.90;;;22.80;66.40;;;;;;5320608;26;20491;-65
2024/04/12 00:58:43;;;;;;;46.70;44.60;;;22.70;66.40;;;;;;5319349;26;20480;-65
2024/04/12 01:01:15;;;;;;;46.30;44.20;;;22.70;66.50;;;;;;5314816;26;20934;-65
2024/04/12 01:03:45;;;;;;;45.43;43.43;;;22.70;66.60;;;;;;5317966;26;21085;-65
2024/04/12 01:06:17;;;;;;;43.70;41.70;;;22.70;66.70;;;;;;5320865;26;20472;-66
2024/04/12 01:08:44;;;;;;;45.50;43.50;;;22.70;66.70;;;;;;5318476;26;20520;-66
2024/04/12 01:11:12;;;;;;;47.47;45.37;;;22.70;66.70;;;;;;5314898;26;21055;-66
2024/04/12 01:13:41;;;;;;;45.87;43.97;;;22.70;66.60;;;;;;5316336;26;20481;-66
2024/04/12 01:16:10;;;;;;;43.63;41.63;;;22.70;66.60;;;;;;5321307;26;20468;-66
2024/04/12 01:18:36;;;;;;;44.60;42.50;;;22.70;66.60;;;;;;5319985;26;20611;-66
2024/04/12 01:21:10;;;;;;;45.20;43.20;;;22.70;66.70;;;;;;5314858;26;20481;-66
2024/04/12 01:23:37;;;;;;;43.90;41.90;;;22.70;66.70;;;;;;5315615;26;20339;-65
2024/04/12 01:26:09;;;;;;;44.30;42.27;;;22.70;66.70;;;;;;5321393;26;20869;-65
2024/04/12 01:28:35;;;;;;;44.57;42.57;;;22.70;66.70;;;;;;5320183;26;20529;-66
2024/04/12 01:31:05;;;;;;;45.30;43.30;;;22.70;66.80;;;;;;5314499;26;20477;-66
2024/04/12 01:33:31;;;;;;;45.00;42.93;;;22.70;67.60;;;;;;5314546;26;20230;-66
2024/04/12 01:36:04;;;;;;;45.40;43.27;;;22.60;66.80;;;;;;5321189;26;20509;-66
2024/04/12 01:38:31;;;;;;;45.03;43.10;;;22.70;66.90;;;;;;5335285;26;20595;-65
2024/04/12 01:41:05;;;;;;;43.17;40.87;;;22.60;66.80;;;;;;5334636;26;20467;-66
2024/04/12 01:43:35;;;;;;;43.27;41.37;;;22.60;66.90;;;;;;5326222;26;20468;-65
2024/04/12 01:46:04;;;;;;;43.20;41.30;;;22.60;66.90;;;;;;5321634;26;20479;-66
2024/04/12 01:48:33;;;;;;;43.37;41.37;;;22.70;67.10;;;;;;5334337;26;20810;-65
2024/04/12 01:51:03;;;;;;;41.00;39.10;;;22.60;67.00;;;;;;5313285;26;20515;-66
2024/04/12 01:53:29;;;;;;;41.27;39.27;;;22.60;67.00;;;;;;5314759;26;21067;-66
2024/04/12 01:55:58;;;;;;;43.50;41.67;;;22.60;67.20;;;;;;5319808;26;20535;-66
2024/04/12 01:58:26;;;;;;;43.17;41.27;;;22.60;67.10;;;;;;5320694;26;20237;-65
2024/04/12 02:00:57;;;;;;;42.70;40.83;;;22.60;67.10;;;;;;5315353;26;20476;-65
2024/04/12 02:03:29;;;;;;;43.93;42.03;;;22.60;67.20;;;;;;5320434;26;20472;-66
2024/04/12 02:06:03;;;;;;;45.60;43.60;;;22.60;67.20;;;;;;5314903;26;21047;-66
2024/04/12 02:08:30;;;;;;;44.63;42.73;;;22.60;67.30;;;;;;5320580;26;21144;-66
2024/04/12 02:10:58;;;;;;;43.57;41.67;;;22.60;67.40;;;;;;5318907;26;20468;-66
2024/04/12 02:13:35;;;;;;;43.90;42.10;;;22.60;67.40;;;;;;5320400;26;20587;-66
2024/04/12 02:16:10;;;;;;;44.77;42.97;;;22.60;67.50;;;;;;5320906;26;20475;-66
2024/04/12 02:18:38;;;;;;;44.13;42.03;;;22.50;67.40;;;;;;5334394;26;20524;-66
2024/04/12 02:21:10;;;;;;;44.33;42.47;;;22.50;67.40;;;;;;5325935;26;20525;-66
2024/04/12 02:23:37;;;;;;;46.10;44.20;;;22.50;67.40;;;;;;5314475;26;20650;-66
2024/04/12 02:26:08;;;;;;;45.00;43.03;;;22.50;67.50;;;;;;5320017;26;20480;-67
2024/04/12 02:28:36;;;;;;;45.00;42.90;;;22.50;67.50;;;;;;5320076;26;20518;-66
2024/04/12 02:31:12;;;;;;;47.37;45.27;;;22.50;67.40;;;;;;5312496;26;20576;-66
2024/04/12 02:33:38;;;;;;;46.10;43.90;;;22.50;67.50;;;;;;5314775;26;21065;-66
2024/04/12 02:36:11;;;;;;;45.63;43.70;;;22.50;67.60;;;;;;5319963;26;20472;-66
2024/04/12 02:38:41;;;;;;;46.30;44.30;;;22.50;67.60;;;;;;5319527;26;20245;-67
2024/04/12 02:41:13;;;;;;;46.67;44.77;;;22.50;67.60;;;;;;5312804;26;20477;-67
2024/04/12 02:43:40;;;;;;;49.37;46.77;;;22.50;67.60;;;;;;5315003;26;20473;-66
2024/04/12 02:46:12;;;;;;;46.80;44.67;;;22.50;67.70;;;;;;5319900;26;20594;-66
2024/04/12 02:48:40;;;;;;;52.27;50.17;;;22.40;67.60;;;;;;5319193;26;20456;-66
2024/04/12 02:51:12;;;;;;;51.13;49.03;;;22.40;67.60;;;;;;5312621;26;20533;-67
2024/04/12 02:53:38;;;;;;;49.90;47.43;;;22.40;67.70;;;;;;5314027;26;21479;-67
2024/04/12 02:56:09;;;;;;;44.40;42.60;;;22.40;67.70;;;;;;5319584;26;20551;-66
2024/04/12 02:58:38;;;;;;;48.70;46.60;;;22.40;67.70;;;;;;5319495;26;20289;-66
2024/04/12 03:01:08;;;;;;;50.67;48.57;;;22.40;67.70;;;;;;5318881;26;20467;-66
2024/04/12 03:03:39;;;;;;;51.50;49.30;;;22.40;67.60;;;;;;5322406;26;20852;-67
2024/04/12 03:06:09;;;;;;;53.20;51.00;;;22.40;67.60;;;;;;5321937;26;21067;-66
2024/04/12 03:08:36;;;;;;;51.90;49.50;;;22.40;67.60;;;;;;5323111;26;20858;-66
2024/04/12 03:11:21;;;;;;;51.17;48.97;;;22.40;67.50;;;;;;5315487;26;20469;-67
2024/04/12 03:13:47;;;;;;;46.00;44.10;;;22.40;67.60;;;;;;5318654;26;20474;-66
2024/04/12 03:16:16;;;;;;;48.43;46.43;;;22.40;67.60;;;;;;5322875;26;20471;-67
2024/04/12 03:18:48;;;;;;;48.70;46.60;;;22.40;67.70;;;;;;5321424;26;20460;-66
2024/04/12 03:21:17;;;;;;;47.37;45.47;;;22.40;67.70;;;;;;5315959;26;20469;-66
2024/04/12 03:23:43;;;;;;;48.73;46.70;;;22.40;67.70;;;;;;5317801;26;21007;-66
2024/04/12 03:26:13;;;;;;;48.90;46.80;;;22.40;67.70;;;;;;5322718;26;20800;-66
2024/04/12 03:28:39;;;;;;;49.63;47.53;;;22.40;67.80;;;;;;5322271;26;20998;-66
2024/04/12 03:31:08;;;;;;;48.13;46.13;;;22.40;67.90;;;;;;5315611;26;20520;-65
2024/04/12 03:33:42;;;;;;;47.17;45.17;;;22.40;67.90;;;;;;5316714;26;20526;-67
2024/04/12 03:36:26;;;;;;;46.43;44.43;;;22.40;67.90;;;;;;5323746;26;20605;-66
2024/04/12 03:41:39;;;;;;;55.67;53.27;;;22.40;67.90;;;;;;5321148;26;20485;-67
2024/04/12 03:44:08;;;;;;;47.80;45.80;;;22.40;67.90;;;;;;5322720;26;20475;-67
2024/04/12 03:46:40;;;;;;;48.20;46.20;;;22.40;67.90;;;;;;5336783;26;20536;-66
2024/04/12 03:49:09;;;;;;;48.53;46.43;;;22.40;67.90;;;;;;5323116;26;20807;-65
2024/04/12 03:51:45;;;;;;;48.80;46.80;;;22.40;68.00;;;;;;5321649;26;21060;-67
2024/04/12 03:54:12;;;;;;;47.20;45.20;;;22.40;68.10;;;;;;5323952;26;20532;-66
2024/04/12 03:56:40;;;;;;;51.43;49.13;;;22.40;68.20;;;;;;5336513;26;21111;-67
2024/04/12 03:59:06;;;;;;;47.57;45.37;;;22.30;68.10;;;;;;5321188;26;20472;-66
2024/04/12 04:01:36;;;;;;;55.13;52.83;;;22.40;68.40;;;;;;5315809;26;20477;-66
2024/04/12 04:04:10;;;;;;;57.87;55.47;;;22.30;68.20;;;;;;5321653;26;20305;-66
2024/04/12 04:06:44;;;;;;;58.53;56.13;;;22.30;68.20;;;;;;5322263;26;21014;-66
2024/04/12 04:09:11;;;;;;;57.63;55.23;;;22.30;68.30;;;;;;5321711;26;21037;-67
2024/04/12 04:11:42;;;;;;;59.23;56.83;;;22.30;68.30;;;;;;5321574;26;20797;-67
2024/04/12 04:14:09;;;;;;;63.53;61.03;;;22.30;68.40;;;;;;5323468;26;20468;-66
2024/04/12 04:16:38;;;;;;;62.40;59.80;;;22.30;68.40;;;;;;5336902;26;20472;-67
2024/04/12 04:19:10;;;;;;;65.37;62.67;;;22.30;68.40;;;;;;5321730;26;20470;-66
2024/04/12 04:21:41;;;;;;;64.90;62.20;;;22.30;68.40;;;;;;5321669;26;20468;-66
2024/04/12 04:24:10;;;;;;;63.30;60.80;;;22.30;68.40;;;;;;5322107;26;20472;-67
2024/04/12 04:26:40;;;;;;;65.13;62.43;;;22.30;68.50;;;;;;5336116;26;20476;-67
2024/04/12 04:29:09;;;;;;;61.00;58.40;;;22.30;68.50;;;;;;5316901;26;20481;-67
2024/04/12 04:31:49;;;;;;;60.83;58.33;;;22.30;68.50;;;;;;5326524;26;20472;-67
2024/04/12 04:34:15;;;;;;;61.47;58.87;;;22.30;68.40;;;;;;5316643;26;20465;-66
2024/04/12 04:36:49;;;;;;;60.57;58.17;;;22.30;68.50;;;;;;5316815;26;20537;-68
2024/04/12 04:39:15;;;;;;;57.50;55.20;;;22.30;68.50;;;;;;5321948;26;20525;-67
2024/04/12 04:41:46;;;;;;;55.47;53.17;;;22.20;68.50;;;;;;5321314;26;20475;-67
2024/04/12 04:44:14;;;;;;;60.87;58.33;;;22.30;68.60;;;;;;5315532;26;20594;-67
2024/04/12 04:46:44;;;;;;;61.37;58.87;;;22.20;68.50;;;;;;5316699;26;20469;-66
2024/04/12 04:49:11;;;;;;;57.23;54.83;;;22.30;68.60;;;;;;5322597;26;20850;-67
2024/04/12 04:51:40;;;;;;;62.47;59.97;;;22.30;68.60;;;;;;5335255;26;20814;-66
2024/04/12 04:54:11;;;;;;;58.40;55.97;;;22.30;68.60;;;;;;5335520;26;20539;-67
2024/04/12 04:56:41;;;;;;;66.13;63.43;;;22.30;68.50;;;;;;5329259;26;20515;-66
2024/04/12 04:59:08;;;;;;;65.73;63.13;;;22.30;68.60;;;;;;5315658;26;20469;-66
2024/04/12 05:01:36;;;;;;;61.90;59.47;;;22.30;68.80;;;;;;5315005;26;20541;-67
2024/04/12 05:04:06;;;;;;;68.73;65.60;;;22.30;68.90;;;;;;5320285;26;20480;-67
2024/04/12 05:06:34;;;;;;;61.33;58.93;;;22.30;68.90;;;;;;5310486;26;21439;-66
2024/04/12 05:09:03;;;;;;;61.13;58.63;;;22.40;69.10;;;;;;5319419;26;20580;-67
2024/04/12 05:11:31;;;;;;;61.00;58.40;;;22.40;69.10;;;;;;5320914;26;20804;-66
2024/04/12 05:14:13;;;;;;;61.67;59.17;;;22.30;69.00;;;;;;5317927;26;20540;-66
2024/04/12 05:16:40;;;;;;;62.37;59.77;;;22.40;69.20;;;;;;5315643;26;20547;-66
2024/04/12 05:19:10;;;;;;;62.27;59.77;;;22.40;69.60;;;;;;5321124;26;20832;-70
2024/04/12 05:21:40;;;;;;;51.80;49.70;;;22.40;70.90;;;;;;5320867;26;20519;-69
2024/04/12 05:24:11;;;;;;;45.47;43.67;;;22.50;70.60;;;;;;5314350;26;20461;-70
2024/04/12 05:26:42;;;;;;;55.30;53.10;;;22.50;71.00;;;;;;5315753;26;20514;-69
2024/04/12 05:29:17;;;;;;;57.47;55.17;;;22.50;71.10;;;;;;5320607;26;20602;-69
2024/04/12 05:31:42;;;;;;;57.37;55.10;;;22.50;71.00;;;;;;5326264;26;20463;-68
2024/04/12 05:34:12;;;;;;;55.03;52.73;;;22.50;71.10;;;;;;5315026;26;20596;-67
2024/04/12 05:36:41;;;;;;;63.00;60.43;;;22.50;71.20;;;;;;5318595;26;20238;-68
2024/04/12 05:39:11;;;;;;;56.73;54.53;;;22.50;71.00;;;;;;5314895;26;20600;-68
2024/04/12 05:41:44;;;;;;;43.70;42.00;;;22.50;71.10;;;;;;5314661;26;20800;-67
2024/04/12 05:44:17;;;;;;;45.80;43.70;;;22.50;71.00;;;;;;5320937;26;21022;-68
2024/04/12 05:46:43;;;;;;;42.60;41.00;;;22.50;70.60;;;;;;5334109;26;20536;-69
2024/04/12 05:49:12;;;;;;;48.70;46.80;;;22.50;70.70;;;;;;5314951;26;20473;-67
2024/04/12 05:51:38;;;;;;;45.00;43.20;;;22.50;70.80;;;;;;5314470;26;20231;-67
2024/04/12 05:54:10;;;;;;;47.97;46.17;;;22.50;71.00;;;;;;5319133;26;20470;-66
2024/04/12 05:56:39;;;;;;;45.90;44.07;;;22.50;71.10;;;;;;5320899;26;20540;-68
2024/04/12 05:59:10;;;;;;;75.87;72.73;;;22.50;71.10;;;;;;5317756;26;20716;-68
2024/04/12 06:01:43;;;;;;;67.07;64.27;;;22.60;71.30;;;;;;5322103;26;20465;-68
2024/04/12 06:04:12;;;;;;;75.63;72.43;;;22.60;71.20;;;;;;5320361;26;20563;-64
2024/04/12 06:06:42;;;;;;;75.33;72.33;;;22.60;70.90;;;;;;5320689;26;20614;-65
2024/04/12 06:09:19;;;;;;;76.73;73.70;;;22.60;70.80;;;;;;5314016;26;20467;-65
2024/04/12 06:11:50;;;;;;;74.10;71.00;;;22.60;70.80;;;;;;5320311;26;20468;-64
2024/04/12 06:14:20;;;;;;;76.27;73.07;;;22.60;70.70;;;;;;5322222;26;20476;-68
2024/04/12 06:16:48;;;;;;;75.27;72.07;;;22.60;71.20;;;;;;5335002;26;20472;-63
2024/04/12 06:19:17;;;;;;;68.60;65.60;;;22.70;71.50;;;;;;5319267;26;20480;-64
2024/04/12 06:21:45;;;;;;;71.27;68.27;;;22.70;70.90;;;;;;5319750;26;20814;-65
2024/04/12 06:24:15;;;;;;;74.10;71.10;;;22.70;70.70;;;;;;5314040;26;20473;-65
2024/04/12 06:26:42;;;;;;;80.50;77.20;;;22.60;70.60;;;;;;5314238;26;20549;-65
2024/04/12 06:29:16;;;;;;;77.43;74.27;;;22.70;70.70;;;;;;5319231;26;20998;-65
2024/04/12 06:31:44;;;;;;;79.43;76.23;;;22.60;70.60;;;;;;5308193;26;20515;-65
2024/04/12 06:34:17;;;;;;;73.73;70.73;;;22.60;70.60;;;;;;5319963;26;20475;-62
2024/04/12 06:36:45;;;;;;;76.30;73.13;;;22.60;70.60;;;;;;5323162;26;20803;-64
2024/04/12 06:39:14;;;;;;;80.97;77.50;;;22.60;70.50;;;;;;5317530;26;20469;-64
2024/04/12 06:41:41;;;;;;;81.10;76.73;;;22.60;70.50;;;;;;5316342;26;20529;-63
2024/04/12 06:46:51;;;;;;;75.90;72.57;;;22.60;71.80;;;;;;5481530;26;20554;-66
2024/04/12 06:49:19;;;;;;;79.83;76.63;;;22.60;72.20;;;;;;5478808;26;21119;-66
2024/04/12 06:52:09;;;;;;;77.33;74.03;;;22.60;72.90;;;;;;5489440;26;20551;-66
2024/04/12 06:54:35;;;;;;;79.60;76.30;;;22.60;73.30;;;;;;5477856;26;20523;-66
2024/04/12 06:57:06;;;;;;;78.17;74.87;;;22.60;73.30;;;;;;5471957;26;20577;-66
2024/04/12 06:59:35;;;;;;;78.77;75.30;;;22.60;73.30;;;;;;5474654;26;20545;-66
2024/04/12 07:02:06;;;;;;;74.50;71.27;;;22.60;73.30;;;;;;5470729;26;20458;-66
2024/04/12 07:04:33;;;;;;;75.17;71.67;;;22.60;73.30;;;;;;5467987;26;20463;-66
2024/04/12 07:07:04;;;;;;;81.60;78.23;;;22.60;73.30;;;;;;5470436;26;20569;-66
2024/04/12 07:09:30;;;;;;;79.10;75.60;;;22.50;73.20;;;;;;5474630;26;20457;-67
2024/04/12 07:12:05;;;;;;;73.90;70.60;;;22.50;73.30;;;;;;5472154;26;20465;-66
2024/04/12 07:14:33;;;;;;;80.33;76.87;;;22.50;73.40;;;;;;5463906;26;20517;-68
2024/04/12 07:17:05;;;;;;;73.87;70.40;;;22.60;74.50;;;;;;5467986;26;20519;-68
2024/04/12 07:19:37;;;;;;;72.70;69.60;;;22.60;74.70;;;;;;5473876;26;20890;-69
2024/04/12 07:22:06;;;;;;;80.83;77.33;;;22.60;74.60;;;;;;5468574;26;20465;-70
2024/04/12 07:24:33;;;;;;;61.63;58.83;;;22.60;74.60;;;;;;5467268;26;20707;-63
2024/04/12 07:27:01;;;;;;;71.97;68.77;;;22.60;74.80;;;;;;5482804;26;20275;-63
2024/04/12 07:29:27;;;;;;;70.07;67.07;;;22.70;73.90;;;;;;5468647;26;20269;-63
2024/04/12 07:31:56;;;;;;;67.00;64.20;;;22.70;73.30;;;;;;5468338;26;20838;-69
2024/04/12 07:34:22;;;;;;;69.67;66.67;;;22.70;73.50;;;;;;5474144;26;20458;-68
2024/04/12 07:36:54;;;;;;;74.90;71.50;;;22.70;73.50;;;;;;5471498;26;20816;-68
2024/04/12 07:39:23;;;;;;;69.70;66.33;;;22.70;73.50;;;;;;5454470;26;20518;-67
2024/04/12 07:41:51;;;;;;;77.00;73.80;;;22.70;73.60;;;;;;5466969;26;21020;-68
2024/04/12 07:44:17;;;;;;;80.50;77.20;;;22.70;73.50;;;;;;5453565;26;20789;-68
2024/04/12 07:46:49;;;;;;;77.57;74.30;;;22.70;73.30;;;;;;5453858;26;20522;-65
2024/04/12 07:49:14;;;;;;;75.97;72.77;;;22.70;73.20;;;;;;5468036;26;20226;-64
2024/04/12 07:51:45;;;;;;;81.00;77.50;;;22.70;73.50;;;;;;5467360;26;20468;-64
2024/04/12 07:54:15;;;;;;;74.90;71.60;;;22.60;74.10;;;;;;5465776;26;20562;-64
2024/04/12 07:56:45;;;;;;;77.80;74.20;;;22.50;74.60;;;;;;5460542;26;20230;-63
2024/04/12 07:59:17;;;;;;;76.27;72.70;;;22.50;74.40;;;;;;5472753;26;20522;-63
2024/04/12 08:01:46;;;;;;;74.23;70.97;;;22.60;74.30;;;;;;5473594;26;20514;-64
2024/04/12 08:04:22;;;;;;;76.67;73.30;;;22.50;74.50;;;;;;5467393;26;20459;-63
2024/04/12 08:06:58;;;;;;;69.87;66.70;;;22.50;74.90;;;;;;5467540;26;20463;-63
2024/04/12 08:09:42;;;;;;;70.25;66.88;;;22.40;75.00;;;;;;5453558;26;20413;-63
2024/04/12 08:12:14;;;;;;;83.33;79.53;;;22.40;75.10;;;;;;5471608;26;20226;-64
2024/04/12 08:14:51;;;;;;;79.10;75.50;;;22.40;75.00;;;;;;5470246;26;20527;-64
2024/04/12 08:17:18;;;;;;;76.17;72.77;;;22.40;75.10;;;;;;5452877;26;21111;-62
2024/04/12 08:19:47;;;;;;;78.50;74.83;;;22.40;75.30;;;;;;5467436;26;20471;-63
2024/04/12 08:22:18;;;;;;;78.40;74.90;;;22.40;75.40;;;;;;5472288;26;20458;-69
2024/04/12 08:24:52;;;;;;;49.73;47.10;;;22.30;75.60;;;;;;5468958;26;20528;-69
2024/04/12 08:27:19;;;;;;;54.00;51.60;;;22.30;76.30;;;;;;5456425;26;20475;-79
2024/04/12 08:29:48;;;;;;;51.83;49.73;;;22.30;77.20;;;;;;5470629;26;20514;-69
2024/04/12 08:32:19;;;;;;;49.67;47.47;;;22.20;76.50;;;;;;5472172;26;20462;-72
2024/04/12 08:34:49;;;;;;;45.28;43.10;;;22.30;76.20;;;;;;5466370;26;20393;-76
2024/04/12 08:37:16;;;;;;;49.77;47.77;;;22.30;76.10;;;;;;5473093;26;20270;-77
2024/04/12 08:39:45;;;;;;;47.57;45.57;;;22.40;75.50;;;;;;5473386;26;20458;-71
2024/04/12 08:42:15;;;;;;;52.30;50.00;;;22.40;75.00;;;;;;5468397;26;20511;-76
2024/04/12 08:44:45;;;;;;;55.90;53.47;;;22.40;75.10;;;;;;5460208;26;20470;-68
2024/04/12 08:47:30;;;;;;;64.50;61.70;;;22.40;75.00;;;;;;5459109;26;20590;-70
2024/04/12 08:50:03;;;;;;;71.53;68.03;;;22.50;76.20;;;;;;5464742;26;20463;-65
2024/04/12 08:52:33;;;;;;;83.20;79.27;;;22.50;75.50;;;;;;5472573;26;20510;-66
2024/04/12 08:55:04;;;;;;;74.87;71.57;;;22.50;75.20;;;;;;5469354;26;20552;-69
2024/04/12 08:57:33;;;;;;;75.10;71.80;;;22.40;75.20;;;;;;5473088;26;20516;-68
2024/04/12 09:00:04;;;;;;;79.00;75.60;;;22.40;75.00;;;;;;5469888;26;20609;-68
2024/04/12 09:02:40;;;;;;;74.20;70.37;;;22.30;75.20;;;;;;5466474;26;20471;-68
2024/04/12 09:05:09;;;;;;;77.10;73.60;;;22.30;75.70;;;;;;5468547;26;20471;-69
2024/04/12 09:07:42;;;;;;;69.37;66.23;;;22.30;76.20;;;;;;5472928;26;20999;-68
2024/04/12 09:10:15;;;;;;;72.97;69.40;;;22.30;76.60;;;;;;5469520;26;20803;-68
2024/04/12 09:12:44;;;;;;;71.20;67.80;;;22.30;76.20;;;;;;5466338;26;20537;-65
2024/04/12 09:15:23;;;;;;;54.83;52.23;;;22.30;75.70;;;;;;5466670;26;20535;-67
2024/04/12 09:17:58;;;;;;;46.13;43.70;;;22.40;76.00;;;;;;5466703;26;20892;-64
2024/04/12 09:20:35;;;;;;;47.20;45.20;;;22.40;75.70;;;;;;5452998;26;20577;-62
2024/04/12 09:23:13;;;;;;;47.30;45.30;;;22.30;75.60;;;;;;5464493;26;20585;-62
2024/04/12 09:25:44;;;;;;;58.40;55.87;;;22.30;75.60;;;;;;5456505;26;20509;-69
2024/04/12 09:28:13;;;;;;;63.83;60.87;;;22.40;75.90;;;;;;5470111;26;20943;-66
2024/04/12 09:33:31;;;;;;;67.43;64.13;;;22.50;75.70;;;;;;5448361;26;20419;-63
2024/04/12 09:36:06;;;;;;;77.73;74.27;;;22.40;75.80;;;;;;5469129;26;20302;-67
2024/04/12 09:38:33;;;;;;;82.77;79.00;;;22.50;76.90;;;;;;5462704;26;20467;-66
2024/04/12 09:41:13;;;;;;;83.97;80.27;;;22.40;75.50;;;;;;5462045;26;21045;-66
2024/04/12 09:43:47;;;;;;;82.53;78.70;;;22.40;75.30;;;;;;5472325;26;20520;-65
2024/04/12 09:46:23;;;;;;;82.70;79.10;;;22.40;75.60;;;;;;5468104;26;20526;-65
2024/04/12 10:39:16;;;;;;;60.80;58.10;;;22.60;77.20;;;;;;5474094;26;20581;-64
2024/04/12 10:41:45;;;;;;;64.17;61.07;;;22.60;76.20;;;;;;5473655;26;20450;-64
2024/04/12 10:44:14;;;;;;;58.03;55.40;;;22.60;76.00;;;;;;5470891;26;20462;-64
2024/04/12 10:46:45;;;;;;;72.30;68.97;;;22.50;76.00;;;;;;5469985;26;20475;-64
2024/04/12 10:49:14;;;;;;;73.10;69.70;;;22.50;75.60;;;;;;5472024;26;20512;-65
2024/04/12 10:51:42;;;;;;;66.93;64.03;;;22.50;75.70;;;;;;5474755;26;20514;-64
2024/04/12 10:54:10;;;;;;;58.50;56.10;;;22.50;75.90;;;;;;5471317;26;20442;-64
2024/04/12 10:56:47;;;;;;;60.43;57.73;;;22.60;76.10;;;;;;5470117;26;20463;-65
2024/04/12 10:59:26;;;;;;;63.30;60.60;;;22.60;75.90;;;;;;5471693;26;20463;-69
2024/04/12 11:01:55;;;;;;;82.27;78.77;;;22.50;76.30;;;;;;5473741;26;20522;-67
2024/04/12 11:04:28;;;;;;;62.80;60.00;;;22.50;76.30;;;;;;5468831;26;20511;-68
2024/04/12 11:06:54;;;;;;;58.23;55.60;;;22.60;75.90;;;;;;5468661;26;20519;-71
2024/04/12 11:09:37;;;;;;;51.50;49.40;;;22.50;75.80;;;;;;5473123;26;20552;-72
2024/04/12 11:12:10;;;;;;;49.33;47.27;;;22.50;76.30;;;;;;5473155;26;20470;-72
2024/04/12 11:14:39;;;;;;;48.80;46.67;;;22.50;76.00;;;;;;5468384;26;20530;-72
2024/04/12 11:31:14;;;;;;;49.63;47.53;;;22.60;75.40;;;;;;5470627;26;20885;-72
2024/04/12 11:33:51;;;;;;;46.07;44.17;;;22.60;75.30;;;;;;5465872;26;20478;-72
2024/04/12 11:36:23;;;;;;;48.60;46.50;;;22.50;75.30;;;;;;5470269;26;20542;-72
2024/04/12 11:38:53;;;;;;;46.97;45.07;;;22.50;75.40;;;;;;5468007;26;20463;-72
2024/04/12 11:41:24;;;;;;;46.60;44.60;;;22.50;75.40;;;;;;5471791;26;20476;-72
2024/04/12 11:43:51;;;;;;;49.43;47.33;;;22.50;75.30;;;;;;5477059;26;20567;-72
2024/04/12 11:46:23;;;;;;;46.90;44.90;;;22.50;75.40;;;;;;5467362;26;20463;-71
2024/04/12 11:48:53;;;;;;;49.70;47.60;;;22.50;75.40;;;;;;5479712;26;20541;-72
2024/04/12 11:51:33;;;;;;;48.30;45.90;;;22.50;75.30;;;;;;5469254;26;20466;-72
2024/04/12 11:53:59;;;;;;;47.97;45.97;;;22.50;75.30;;;;;;5482020;26;20462;-72
2024/04/12 11:56:27;;;;;;;45.40;43.47;;;22.50;75.40;;;;;;5468376;26;20557;-73
2024/04/12 11:58:54;;;;;;;46.60;44.50;;;22.50;75.40;;;;;;5467631;26;20456;-72
2024/04/12 12:01:22;;;;;;;47.17;45.27;;;22.60;75.30;;;;;;5481803;26;20470;-72
2024/04/12 12:03:49;;;;;;;46.80;44.90;;;22.50;75.10;;;;;;5467540;26;20464;-72
2024/04/12 12:06:18;;;;;;;47.40;45.30;;;22.50;75.00;;;;;;5470318;26;20471;-73
2024/04/12 12:08:57;;;;;;;46.80;44.83;;;22.50;75.70;;;;;;5473624;26;20514;-72
2024/04/12 12:11:27;;;;;;;46.93;44.93;;;22.50;74.80;;;;;;5458222;26;20600;-72
2024/04/12 12:13:53;;;;;;;45.63;43.63;;;22.50;74.70;;;;;;5473836;26;20462;-72
2024/04/12 12:16:22;;;;;;;49.27;47.27;;;22.60;74.70;;;;;;5473517;26;20580;-73
2024/04/12 12:18:47;;;;;;;48.63;46.60;;;22.60;74.60;;;;;;5462645;26;20227;-72
2024/04/12 12:21:17;;;;;;;47.00;45.10;;;22.60;74.40;;;;;;5469058;26;20471;-72
2024/04/12 12:23:43;;;;;;;42.90;41.10;;;22.60;74.20;;;;;;5473568;26;20229;-73
2024/04/12 12:26:15;;;;;;;42.57;40.67;;;22.60;74.20;;;;;;5471963;26;20583;-72
2024/04/12 12:28:41;;;;;;;43.30;41.50;;;22.60;73.90;;;;;;5467090;26;20570;-72
2024/04/12 12:31:11;;;;;;;44.80;42.90;;;22.60;73.90;;;;;;5481776;26;20543;-73
2024/04/12 12:33:38;;;;;;;45.07;43.07;;;22.60;73.60;;;;;;5475982;26;20259;-73
2024/04/12 12:36:10;;;;;;;47.83;45.70;;;22.60;73.50;;;;;;5473622;26;20577;-73
2024/04/12 12:38:40;;;;;;;44.97;43.07;;;22.60;73.40;;;;;;5459974;26;20466;-72
2024/04/12 12:41:08;;;;;;;47.80;45.80;;;22.60;73.20;;;;;;5472446;26;20458;-73
2024/04/12 12:43:40;;;;;;;45.10;43.30;;;22.60;74.10;;;;;;5474568;26;20450;-72
2024/04/12 12:46:10;;;;;;;43.67;41.87;;;22.60;73.90;;;;;;5472659;26;20612;-72
2024/04/12 12:48:39;;;;;;;42.23;40.53;;;22.60;73.10;;;;;;5467016;26;20519;-72
2024/04/12 12:51:08;;;;;;;43.83;42.03;;;22.60;73.20;;;;;;5466604;26;20454;-71
2024/04/12 12:53:34;;;;;;;45.50;43.50;;;22.60;73.10;;;;;;5467036;26;20519;-73
2024/04/12 12:56:03;;;;;;;44.17;42.37;;;22.70;73.20;;;;;;5465732;26;20466;-73
2024/04/12 12:58:29;;;;;;;44.47;42.47;;;22.60;72.90;;;;;;5473187;26;20225;-73
2024/04/12 13:01:01;;;;;;;46.27;44.40;;;22.60;72.70;;;;;;5473294;26;20522;-72
2024/04/12 13:03:29;;;;;;;47.10;45.10;;;22.60;72.70;;;;;;5482309;26;20521;-73
2024/04/12 13:05:58;;;;;;;44.43;42.53;;;22.70;72.70;;;;;;5479322;26;20869;-73
2024/04/12 13:08:25;;;;;;;47.03;45.03;;;22.60;72.40;;;;;;5459338;26;20523;-72
2024/04/12 13:10:56;;;;;;;43.70;41.87;;;22.60;72.30;;;;;;5473014;26;20462;-72
2024/04/12 13:13:22;;;;;;;41.90;40.10;;;22.70;72.60;;;;;;5472420;26;20471;-72
2024/04/12 13:15:57;;;;;;;44.73;42.83;;;22.60;72.40;;;;;;5472814;26;20845;-73
2024/04/12 13:18:27;;;;;;;44.83;42.83;;;22.60;72.40;;;;;;5472915;26;20471;-73
2024/04/12 13:20:57;;;;;;;46.67;44.77;;;22.60;72.40;;;;;;5472958;26;20470;-72
2024/04/12 13:23:25;;;;;;;44.50;42.70;;;22.60;72.30;;;;;;5467965;26;20462;-72
2024/04/12 13:25:54;;;;;;;47.97;45.87;;;22.60;72.20;;;;;;5466523;26;20813;-73
2024/04/12 13:28:20;;;;;;;46.83;44.83;;;22.60;72.10;;;;;;5469640;26;20451;-72
2024/04/12 13:30:50;;;;;;;49.67;47.50;;;22.60;72.10;;;;;;5472880;26;20462;-73
2024/04/12 13:33:16;;;;;;;47.70;45.80;;;22.70;72.40;;;;;;5470096;26;20522;-73
2024/04/12 13:35:47;;;;;;;48.23;46.33;;;22.70;73.10;;;;;;5472558;26;20474;-72
2024/04/12 13:38:14;;;;;;;46.00;44.00;;;22.70;72.20;;;;;;5471141;26;20831;-72
2024/04/12 13:40:45;;;;;;;46.77;44.87;;;22.70;72.10;;;;;;5466289;26;20629;-73
2024/04/12 13:43:13;;;;;;;51.73;49.63;;;22.70;72.00;;;;;;5451225;26;21050;-72
2024/04/12 13:51:18;;;;;;;47.00;45.00;;;22.70;71.90;;;;;;5469064;26;20604;-72
2024/04/12 13:53:50;;;;;;;49.80;47.80;;;22.70;71.90;;;;;;5463562;26;20583;-73
2024/04/12 13:59:10;;;;;;;48.63;46.73;;;22.70;71.60;;;;;;5441508;26;20451;-72
2024/04/12 14:01:40;;;;;;;51.20;49.20;;;22.70;71.70;;;;;;5450360;26;20957;-73
2024/04/12 14:04:09;;;;;;;50.83;48.83;;;22.60;71.60;;;;;;5450784;26;20515;-73